createdAt,value
2017-12-21T00:00:21.214Z,88.98
2017-12-21T00:01:21.206Z,88.89
2017-12-21T00:02:21.197Z,88.60
2017-12-21T00:03:21.188Z,88.70
2017-12-21T00:04:21.180Z,89.17
2017-12-21T00:05:21.172Z,89.54
2017-12-21T00:06:21.162Z,89.54
2017-12-21T00:07:21.160Z,89.73
2017-12-21T00:08:21.145Z,89.26
2017-12-21T00:09:21.139Z,89.36
2017-12-21T00:10:21.129Z,89.26
2017-12-21T00:11:21.123Z,88.70
2017-12-21T00:12:21.112Z,88.98
2017-12-21T00:13:21.106Z,88.98
2017-12-21T00:14:21.094Z,88.98
2017-12-21T00:15:21.086Z,89.07
2017-12-21T00:16:21.077Z,89.36
2017-12-21T00:17:21.070Z,88.89
2017-12-21T00:18:21.061Z,88.42
2017-12-21T00:19:21.053Z,88.60
2017-12-21T00:20:21.045Z,88.42
2017-12-21T00:21:21.036Z,88.32
2017-12-21T00:22:21.026Z,88.51
2017-12-21T00:23:21.018Z,88.32
2017-12-21T00:24:21.011Z,88.60
2017-12-21T00:25:21.002Z,89.07
2017-12-21T00:26:20.993Z,88.98
2017-12-21T00:27:20.985Z,88.98
2017-12-21T00:28:20.976Z,89.17
2017-12-21T00:29:20.967Z,88.51
2017-12-21T00:30:20.958Z,88.79
2017-12-21T00:31:20.951Z,88.79
2017-12-21T00:32:20.942Z,88.51
2017-12-21T00:33:20.935Z,89.45
2017-12-21T00:34:20.925Z,90.11
2017-12-21T00:35:20.917Z,90.02
2017-12-21T00:36:20.908Z,89.92
2017-12-21T00:37:20.901Z,89.83
2017-12-21T00:38:20.891Z,90.21
2017-12-21T00:39:20.883Z,90.02
2017-12-21T00:40:20.875Z,89.54
2017-12-21T00:41:20.866Z,87.47
2017-12-21T00:42:20.859Z,86.71
2017-12-21T00:43:20.849Z,85.96
2017-12-21T00:44:20.840Z,86.15
2017-12-21T00:45:20.832Z,85.77
2017-12-21T00:46:20.824Z,86.24
2017-12-21T00:47:20.817Z,86.15
2017-12-21T00:48:20.809Z,85.86
2017-12-21T00:49:20.801Z,86.62
2017-12-21T00:50:20.792Z,87.09
2017-12-21T00:51:20.782Z,87.28
2017-12-21T00:52:20.774Z,88.04
2017-12-21T00:53:20.767Z,88.70
2017-12-21T00:54:20.756Z,87.56
2017-12-21T00:55:20.751Z,86.80
2017-12-21T00:56:20.741Z,86.15
2017-12-21T00:57:20.733Z,86.05
2017-12-21T00:58:20.725Z,86.43
2017-12-21T00:59:20.717Z,86.15
2017-12-21T01:00:20.707Z,85.68
2017-12-21T01:01:20.699Z,85.30
2017-12-21T01:02:20.690Z,84.82
2017-12-21T01:03:20.683Z,84.26
2017-12-21T01:04:20.676Z,83.97
2017-12-21T01:05:20.669Z,84.64
2017-12-21T01:06:20.657Z,84.64
2017-12-21T01:07:20.649Z,84.45
2017-12-21T01:08:20.642Z,83.78
2017-12-21T01:09:20.632Z,84.11
2017-12-21T01:10:20.625Z,83.78
2017-12-21T01:11:20.617Z,84.45
2017-12-21T01:12:20.607Z,84.64
2017-12-21T01:13:20.600Z,85.49
2017-12-21T01:14:20.591Z,85.39
2017-12-21T01:15:20.582Z,85.77
2017-12-21T01:16:20.573Z,86.62
2017-12-21T01:17:20.566Z,86.43
2017-12-21T01:18:20.557Z,86.99
2017-12-21T01:19:20.549Z,85.77
2017-12-21T01:20:20.540Z,86.24
2017-12-21T01:21:20.533Z,86.05
2017-12-21T01:22:20.523Z,85.58
2017-12-21T01:23:20.514Z,85.20
2017-12-21T01:24:20.508Z,84.92
2017-12-21T01:25:20.500Z,85.68
2017-12-21T01:26:20.491Z,85.30
2017-12-21T01:27:20.482Z,85.72
2017-12-21T01:28:20.475Z,85.62
2017-12-21T01:29:20.467Z,85.34
2017-12-21T01:30:20.456Z,84.77
2017-12-21T01:31:20.449Z,84.86
2017-12-21T01:32:20.442Z,84.77
2017-12-21T01:33:20.433Z,85.05
2017-12-21T01:34:20.424Z,84.86
2017-12-21T01:35:20.417Z,84.20
2017-12-21T01:36:20.409Z,84.11
2017-12-21T01:37:20.408Z,84.30
2017-12-21T01:38:20.390Z,84.11
2017-12-21T01:39:20.383Z,83.83
2017-12-21T01:40:20.375Z,84.68
2017-12-21T01:41:20.374Z,83.92
2017-12-21T01:42:20.359Z,84.01
2017-12-21T01:43:20.350Z,84.45
2017-12-21T01:44:20.343Z,84.96
2017-12-21T01:45:20.337Z,84.49
2017-12-21T01:46:20.326Z,84.11
2017-12-21T01:47:20.317Z,84.49
2017-12-21T01:48:20.310Z,84.30
2017-12-21T01:49:20.302Z,84.58
2017-12-21T01:50:20.292Z,84.86
2017-12-21T01:51:20.284Z,84.86
2017-12-21T01:52:20.276Z,85.15
2017-12-21T01:53:20.268Z,84.77
2017-12-21T01:54:20.260Z,85.01
2017-12-21T01:55:20.252Z,85.30
2017-12-21T01:56:20.244Z,86.00
2017-12-21T01:57:20.236Z,86.15
2017-12-21T01:58:20.228Z,85.39
2017-12-21T01:59:20.218Z,86.05
2017-12-21T02:00:20.214Z,86.15
2017-12-21T02:01:20.204Z,85.68
2017-12-21T02:02:20.195Z,85.49
2017-12-21T02:03:20.186Z,86.29
2017-12-21T02:04:20.178Z,85.20
2017-12-21T02:05:20.170Z,85.43
2017-12-21T02:06:20.160Z,85.72
2017-12-21T02:07:20.153Z,85.49
2017-12-21T02:08:20.146Z,85.05
2017-12-21T02:09:20.137Z,85.34
2017-12-21T02:10:20.136Z,84.58
2017-12-21T02:11:20.120Z,84.49
2017-12-21T02:12:20.112Z,83.73
2017-12-21T02:13:20.104Z,83.64
2017-12-21T02:14:20.094Z,83.83
2017-12-21T02:15:20.086Z,84.11
2017-12-21T02:16:20.079Z,84.20
2017-12-21T02:17:20.070Z,83.26
2017-12-21T02:18:20.063Z,84.01
2017-12-21T02:19:20.055Z,83.45
2017-12-21T02:20:20.051Z,83.17
2017-12-21T02:21:20.040Z,82.79
2017-12-21T02:22:20.030Z,83.17
2017-12-21T02:23:20.021Z,83.45
2017-12-21T02:24:20.013Z,83.64
2017-12-21T02:25:20.007Z,83.64
2017-12-21T02:26:19.997Z,83.26
2017-12-21T02:27:19.989Z,83.45
2017-12-21T02:28:19.982Z,83.36
2017-12-21T02:29:19.974Z,82.98
2017-12-21T02:30:19.964Z,82.88
2017-12-21T02:31:19.961Z,83.36
2017-12-21T02:32:19.948Z,83.36
2017-12-21T02:33:19.942Z,83.83
2017-12-21T02:34:19.935Z,83.36
2017-12-21T02:35:19.924Z,83.54
2017-12-21T02:36:19.916Z,82.88
2017-12-21T02:37:19.909Z,83.36
2017-12-21T02:38:19.901Z,82.98
2017-12-21T02:39:19.892Z,82.79
2017-12-21T02:40:19.885Z,83.07
2017-12-21T02:41:19.878Z,82.98
2017-12-21T02:42:19.868Z,82.88
2017-12-21T02:43:19.861Z,82.98
2017-12-21T02:44:19.853Z,83.26
2017-12-21T02:45:19.846Z,83.17
2017-12-21T02:46:19.837Z,83.54
2017-12-21T02:47:19.828Z,83.54
2017-12-21T02:48:19.821Z,83.83
2017-12-21T02:49:19.814Z,84.11
2017-12-21T02:50:19.804Z,83.73
2017-12-21T02:51:19.797Z,83.36
2017-12-21T02:52:19.789Z,84.01
2017-12-21T02:53:19.781Z,83.64
2017-12-21T02:54:19.773Z,84.01
2017-12-21T02:55:19.818Z,83.64
2017-12-21T02:56:19.757Z,83.36
2017-12-21T02:57:19.749Z,82.79
2017-12-21T02:58:19.741Z,83.07
2017-12-21T02:59:19.732Z,83.45
2017-12-21T03:00:19.731Z,83.07
2017-12-21T03:01:19.717Z,83.17
2017-12-21T03:02:19.708Z,82.98
2017-12-21T03:03:19.701Z,83.26
2017-12-21T03:04:19.692Z,82.69
2017-12-21T03:05:19.685Z,82.98
2017-12-21T03:06:19.675Z,82.79
2017-12-21T03:07:19.667Z,82.41
2017-12-21T03:08:19.659Z,82.98
2017-12-21T03:09:19.651Z,82.88
2017-12-21T03:10:19.644Z,83.17
2017-12-21T03:11:19.635Z,83.26
2017-12-21T03:12:19.627Z,83.26
2017-12-21T03:13:19.619Z,83.36
2017-12-21T03:14:19.612Z,83.73
2017-12-21T03:15:19.602Z,82.98
2017-12-21T03:16:19.595Z,83.54
2017-12-21T03:17:19.587Z,83.45
2017-12-21T03:18:19.578Z,83.64
2017-12-21T03:19:19.570Z,82.79
2017-12-21T03:20:19.563Z,82.79
2017-12-21T03:21:19.556Z,82.79
2017-12-21T03:22:19.547Z,82.22
2017-12-21T03:23:19.540Z,82.31
2017-12-21T03:24:19.531Z,81.56
2017-12-21T03:25:19.523Z,81.84
2017-12-21T03:26:19.514Z,81.46
2017-12-21T03:27:19.506Z,81.27
2017-12-21T03:28:19.500Z,81.37
2017-12-21T03:29:19.491Z,81.84
2017-12-21T03:30:19.483Z,81.56
2017-12-21T03:31:19.476Z,81.65
2017-12-21T03:32:19.469Z,81.56
2017-12-21T03:33:19.459Z,81.65
2017-12-21T03:34:19.452Z,82.03
2017-12-21T03:35:19.443Z,82.69
2017-12-21T03:36:19.436Z,82.60
2017-12-21T03:37:19.428Z,82.60
2017-12-21T03:38:19.420Z,82.79
2017-12-21T03:39:19.412Z,82.41
2017-12-21T03:40:19.406Z,82.98
2017-12-21T03:41:19.396Z,83.07
2017-12-21T03:42:19.388Z,82.79
2017-12-21T03:43:19.379Z,82.98
2017-12-21T03:44:19.372Z,83.07
2017-12-21T03:45:19.365Z,82.50
2017-12-21T03:46:19.356Z,82.60
2017-12-21T03:47:19.348Z,83.07
2017-12-21T03:48:19.339Z,82.31
2017-12-21T03:49:19.333Z,82.12
2017-12-21T03:50:19.324Z,82.22
2017-12-21T03:51:19.317Z,82.03
2017-12-21T03:52:19.308Z,81.56
2017-12-21T03:53:19.302Z,81.84
2017-12-21T03:54:19.293Z,81.74
2017-12-21T03:55:19.284Z,81.65
2017-12-21T03:56:19.276Z,81.56
2017-12-21T03:57:19.269Z,81.93
2017-12-21T03:58:19.261Z,81.32
2017-12-21T03:59:19.254Z,81.88
2017-12-21T04:00:19.247Z,81.84
2017-12-21T04:01:19.238Z,81.56
2017-12-21T04:02:19.230Z,81.18
2017-12-21T04:03:19.221Z,81.37
2017-12-21T04:04:19.214Z,81.37
2017-12-21T04:05:19.206Z,81.37
2017-12-21T04:06:19.197Z,81.65
2017-12-21T04:07:19.189Z,81.65
2017-12-21T04:08:19.183Z,81.84
2017-12-21T04:09:19.175Z,82.03
2017-12-21T04:10:19.167Z,82.60
2017-12-21T04:11:19.161Z,82.50
2017-12-21T04:12:19.152Z,82.41
2017-12-21T04:13:19.144Z,82.22
2017-12-21T04:14:19.135Z,82.22
2017-12-21T04:15:19.128Z,82.79
2017-12-21T04:16:19.120Z,82.60
2017-12-21T04:17:19.112Z,82.69
2017-12-21T04:18:19.104Z,82.79
2017-12-21T04:19:19.096Z,82.69
2017-12-21T04:20:19.088Z,82.69
2017-12-21T04:21:19.080Z,82.79
2017-12-21T04:22:19.073Z,82.60
2017-12-21T04:23:19.065Z,82.22
2017-12-21T04:24:19.057Z,82.41
2017-12-21T04:25:19.049Z,82.98
2017-12-21T04:26:19.042Z,82.50
2017-12-21T04:27:19.034Z,82.69
2017-12-21T04:28:19.026Z,82.98
2017-12-21T04:29:19.020Z,82.79
2017-12-21T04:30:19.009Z,82.22
2017-12-21T04:31:19.003Z,81.93
2017-12-21T04:32:18.995Z,82.22
2017-12-21T04:33:18.987Z,82.07
2017-12-21T04:34:18.979Z,82.41
2017-12-21T04:35:18.972Z,82.54
2017-12-21T04:36:18.963Z,82.17
2017-12-21T04:37:18.956Z,81.79
2017-12-21T04:38:18.947Z,82.07
2017-12-21T04:39:18.939Z,82.07
2017-12-21T04:40:18.933Z,82.35
2017-12-21T04:41:18.926Z,81.70
2017-12-21T04:42:18.917Z,81.88
2017-12-21T04:43:18.909Z,81.60
2017-12-21T04:44:18.901Z,81.51
2017-12-21T04:45:18.893Z,80.84
2017-12-21T04:46:18.884Z,80.18
2017-12-21T04:47:18.878Z,80.37
2017-12-21T04:48:18.870Z,80.37
2017-12-21T04:49:18.863Z,79.99
2017-12-21T04:50:18.854Z,80.18
2017-12-21T04:51:18.846Z,80.46
2017-12-21T04:52:18.839Z,80.18
2017-12-21T04:53:18.831Z,79.71
2017-12-21T04:54:18.822Z,79.52
2017-12-21T04:55:18.816Z,79.33
2017-12-21T04:56:18.809Z,79.52
2017-12-21T04:57:18.799Z,79.99
2017-12-21T04:58:18.792Z,79.52
2017-12-21T04:59:18.784Z,79.24
2017-12-21T05:00:18.777Z,79.33
2017-12-21T05:01:18.770Z,79.33
2017-12-21T05:02:18.761Z,79.61
2017-12-21T05:03:18.755Z,79.52
2017-12-21T05:04:18.748Z,79.61
2017-12-21T05:05:18.739Z,79.24
2017-12-21T05:06:18.732Z,79.05
2017-12-21T05:07:18.723Z,79.61
2017-12-21T05:08:18.715Z,78.95
2017-12-21T05:09:18.708Z,79.24
2017-12-21T05:10:18.700Z,79.43
2017-12-21T05:11:18.692Z,80.08
2017-12-21T05:12:18.685Z,80.84
2017-12-21T05:13:18.680Z,81.13
2017-12-21T05:14:18.669Z,81.70
2017-12-21T05:15:18.663Z,81.51
2017-12-21T05:16:18.655Z,82.07
2017-12-21T05:17:18.648Z,82.35
2017-12-21T05:18:18.638Z,82.26
2017-12-21T05:19:18.632Z,82.35
2017-12-21T05:20:18.624Z,82.73
2017-12-21T05:21:18.616Z,82.17
2017-12-21T05:22:18.606Z,81.32
2017-12-21T05:23:18.599Z,81.13
2017-12-21T05:24:18.592Z,81.60
2017-12-21T05:25:18.584Z,81.70
2017-12-21T05:26:18.576Z,82.35
2017-12-21T05:27:18.570Z,82.26
2017-12-21T05:28:18.560Z,82.17
2017-12-21T05:29:18.554Z,81.88
2017-12-21T05:30:18.546Z,81.88
2017-12-21T05:31:18.538Z,82.17
2017-12-21T05:32:18.530Z,82.35
2017-12-21T05:33:18.523Z,81.51
2017-12-21T05:34:18.514Z,81.22
2017-12-21T05:35:18.507Z,80.56
2017-12-21T05:36:18.499Z,80.27
2017-12-21T05:37:18.496Z,80.08
2017-12-21T05:38:18.485Z,80.27
2017-12-21T05:39:18.479Z,80.27
2017-12-21T05:40:18.470Z,80.18
2017-12-21T05:41:18.462Z,80.46
2017-12-21T05:42:18.455Z,80.18
2017-12-21T05:43:18.447Z,80.18
2017-12-21T05:44:18.437Z,79.99
2017-12-21T05:45:18.431Z,80.46
2017-12-21T05:46:18.425Z,80.65
2017-12-21T05:47:18.417Z,81.22
2017-12-21T05:48:18.409Z,81.88
2017-12-21T05:49:18.401Z,82.35
2017-12-21T05:50:18.395Z,82.83
2017-12-21T05:51:18.387Z,82.73
2017-12-21T05:52:18.380Z,82.83
2017-12-21T05:53:18.371Z,83.64
2017-12-21T05:54:18.362Z,84.11
2017-12-21T05:55:18.356Z,84.86
2017-12-21T05:56:18.348Z,85.34
2017-12-21T05:57:18.340Z,85.91
2017-12-21T05:58:18.333Z,86.19
2017-12-21T05:59:18.325Z,85.91
2017-12-21T06:00:18.317Z,86.19
2017-12-21T06:01:18.309Z,85.91
2017-12-21T06:02:18.302Z,85.53
2017-12-21T06:03:18.294Z,85.05
2017-12-21T06:04:18.285Z,84.72
2017-12-21T06:05:18.278Z,84.16
2017-12-21T06:06:18.270Z,84.25
2017-12-21T06:07:18.262Z,83.87
2017-12-21T06:08:18.255Z,83.59
2017-12-21T06:09:18.246Z,83.40
2017-12-21T06:10:18.239Z,83.87
2017-12-21T06:11:18.283Z,84.16
2017-12-21T06:12:18.223Z,83.59
2017-12-21T06:13:18.215Z,83.11
2017-12-21T06:14:18.208Z,83.40
2017-12-21T06:15:18.199Z,82.64
2017-12-21T06:16:18.192Z,82.92
2017-12-21T06:17:18.186Z,82.83
2017-12-21T06:18:18.179Z,82.83
2017-12-21T06:19:18.168Z,82.92
2017-12-21T06:20:18.161Z,82.64
2017-12-21T06:21:18.154Z,82.64
2017-12-21T06:22:18.146Z,82.54
2017-12-21T06:23:18.138Z,83.02
2017-12-21T06:24:18.132Z,83.02
2017-12-21T06:25:18.124Z,83.11
2017-12-21T06:26:18.114Z,82.64
2017-12-21T06:27:18.109Z,82.17
2017-12-21T06:28:18.103Z,82.73
2017-12-21T06:29:18.092Z,83.11
2017-12-21T06:30:18.085Z,83.40
2017-12-21T06:31:18.076Z,83.02
2017-12-21T06:32:18.069Z,82.54
2017-12-21T06:33:18.062Z,83.40
2017-12-21T06:34:18.054Z,83.02
2017-12-21T06:35:18.121Z,83.02
2017-12-21T06:36:18.040Z,83.59
2017-12-21T06:37:18.033Z,83.40
2017-12-21T06:38:18.025Z,83.40
2017-12-21T06:39:18.016Z,83.78
2017-12-21T06:40:18.010Z,82.92
2017-12-21T06:41:18.002Z,82.83
2017-12-21T06:42:17.994Z,83.21
2017-12-21T06:43:17.986Z,82.07
2017-12-21T06:44:17.978Z,81.88
2017-12-21T06:45:17.973Z,81.60
2017-12-21T06:46:17.964Z,81.88
2017-12-21T06:47:17.958Z,82.26
2017-12-21T06:48:17.950Z,82.40
2017-12-21T06:49:17.946Z,82.40
2017-12-21T06:50:17.935Z,82.40
2017-12-21T06:51:17.927Z,82.40
2017-12-21T06:52:17.924Z,82.31
2017-12-21T06:53:17.912Z,82.87
2017-12-21T06:54:17.905Z,82.59
2017-12-21T06:55:17.898Z,82.50
2017-12-21T06:56:17.890Z,82.31
2017-12-21T06:57:17.884Z,82.31
2017-12-21T06:58:17.874Z,82.68
2017-12-21T06:59:17.871Z,83.06
2017-12-21T07:00:17.860Z,82.40
2017-12-21T07:01:17.853Z,81.83
2017-12-21T07:02:17.847Z,82.02
2017-12-21T07:03:17.837Z,81.83
2017-12-21T07:04:17.832Z,81.83
2017-12-21T07:05:17.824Z,82.68
2017-12-21T07:06:17.816Z,82.78
2017-12-21T07:07:17.809Z,81.74
2017-12-21T07:08:17.801Z,82.02
2017-12-21T07:09:17.795Z,81.83
2017-12-21T07:10:17.786Z,81.93
2017-12-21T07:11:17.779Z,82.12
2017-12-21T07:12:17.773Z,81.83
2017-12-21T07:13:17.769Z,82.40
2017-12-21T07:14:17.756Z,82.87
2017-12-21T07:15:17.749Z,82.97
2017-12-21T07:16:17.751Z,82.97
2017-12-21T07:17:17.735Z,82.78
2017-12-21T07:18:17.726Z,82.68
2017-12-21T07:19:17.720Z,82.78
2017-12-21T07:20:17.712Z,82.78
2017-12-21T07:21:17.706Z,82.87
2017-12-21T07:22:17.698Z,83.72
2017-12-21T07:23:17.690Z,83.53
2017-12-21T07:24:17.685Z,83.44
2017-12-21T07:25:17.677Z,83.82
2017-12-21T07:26:17.668Z,83.63
2017-12-21T07:27:17.661Z,84.10
2017-12-21T07:28:17.653Z,84.20
2017-12-21T07:29:17.647Z,83.91
2017-12-21T07:30:17.639Z,84.10
2017-12-21T07:31:17.633Z,84.48
2017-12-21T07:32:17.624Z,85.00
2017-12-21T07:33:17.618Z,85.42
2017-12-21T07:34:17.610Z,85.42
2017-12-21T07:35:17.603Z,85.42
2017-12-21T07:36:17.595Z,85.42
2017-12-21T07:37:17.589Z,86.09
2017-12-21T07:38:17.581Z,85.80
2017-12-21T07:39:17.572Z,85.71
2017-12-21T07:40:17.565Z,85.80
2017-12-21T07:41:17.558Z,86.09
2017-12-21T07:42:17.551Z,85.99
2017-12-21T07:43:17.544Z,86.09
2017-12-21T07:44:17.570Z,86.09
2017-12-21T07:45:17.532Z,86.66
2017-12-21T07:46:17.521Z,87.60
2017-12-21T07:47:17.514Z,87.88
2017-12-21T07:48:17.507Z,88.22
2017-12-21T07:49:17.501Z,88.64
2017-12-21T07:50:17.491Z,88.79
2017-12-21T07:51:17.547Z,89.17
2017-12-21T07:52:17.477Z,89.54
2017-12-21T07:53:17.470Z,90.25
2017-12-21T07:54:17.462Z,90.16
2017-12-21T07:55:17.456Z,90.06
2017-12-21T07:56:17.483Z,90.16
2017-12-21T07:57:17.441Z,89.59
2017-12-21T07:58:17.434Z,89.59
2017-12-21T07:59:17.426Z,89.31
2017-12-21T08:00:17.419Z,89.69
2017-12-21T08:01:17.412Z,89.40
2017-12-21T08:02:17.404Z,89.59
2017-12-21T08:03:17.396Z,89.97
2017-12-21T08:04:17.388Z,89.59
2017-12-21T08:05:17.382Z,89.78
2017-12-21T08:06:17.374Z,89.50
2017-12-21T08:07:17.366Z,89.50
2017-12-21T08:08:17.360Z,89.50
2017-12-21T08:09:17.354Z,89.87
2017-12-21T08:10:17.345Z,89.21
2017-12-21T08:11:17.338Z,89.31
2017-12-21T08:12:17.331Z,89.02
2017-12-21T08:13:17.325Z,88.83
2017-12-21T08:14:17.316Z,88.74
2017-12-21T08:15:17.309Z,88.93
2017-12-21T08:16:17.308Z,88.93
2017-12-21T08:17:17.296Z,88.55
2017-12-21T08:18:17.288Z,88.45
2017-12-21T08:19:17.282Z,88.45
2017-12-21T08:20:17.274Z,88.36
2017-12-21T08:21:17.268Z,88.74
2017-12-21T08:22:17.260Z,88.17
2017-12-21T08:23:17.254Z,88.40
2017-12-21T08:24:17.245Z,88.07
2017-12-21T08:25:17.240Z,88.02
2017-12-21T08:26:17.233Z,87.55
2017-12-21T08:27:17.525Z,87.65
2017-12-21T08:28:17.218Z,87.36
2017-12-21T08:29:17.212Z,87.93
2017-12-21T08:30:17.205Z,87.88
2017-12-21T08:31:17.197Z,89.02
2017-12-21T08:32:17.442Z,89.02
2017-12-21T08:33:17.184Z,88.83
2017-12-21T08:34:17.176Z,88.49
2017-12-21T08:35:17.170Z,88.59
2017-12-21T08:36:17.163Z,88.21
2017-12-21T08:37:17.157Z,88.31
2017-12-21T08:38:17.149Z,88.02
2017-12-21T08:39:17.143Z,87.74
2017-12-21T08:40:17.136Z,87.93
2017-12-21T08:41:17.130Z,87.65
2017-12-21T08:42:17.123Z,87.46
2017-12-21T08:43:17.114Z,86.79
2017-12-21T08:44:17.111Z,86.98
2017-12-21T08:45:17.101Z,87.17
2017-12-21T08:46:17.096Z,86.51
2017-12-21T08:47:17.088Z,86.70
2017-12-21T08:48:17.089Z,86.70
2017-12-21T08:49:17.074Z,86.32
2017-12-21T08:50:17.069Z,86.04
2017-12-21T08:51:17.061Z,85.57
2017-12-21T08:52:17.056Z,85.57
2017-12-21T08:53:17.051Z,85.09
2017-12-21T08:54:17.042Z,84.81
2017-12-21T08:55:17.034Z,85.32
2017-12-21T08:56:17.028Z,84.85
2017-12-21T08:57:17.023Z,85.13
2017-12-21T08:58:17.015Z,84.19
2017-12-21T08:59:17.008Z,84.00
2017-12-21T09:00:17.002Z,84.09
2017-12-21T09:01:16.996Z,84.00
2017-12-21T09:02:17.005Z,84.09
2017-12-21T09:03:16.984Z,84.28
2017-12-21T09:04:16.978Z,83.90
2017-12-21T09:05:16.971Z,84.28
2017-12-21T09:06:16.964Z,84.09
2017-12-21T09:07:16.959Z,83.62
2017-12-21T09:08:16.953Z,84.09
2017-12-21T09:09:16.947Z,83.52
2017-12-21T09:10:16.940Z,83.90
2017-12-21T09:11:16.935Z,82.76
2017-12-21T09:12:16.929Z,83.05
2017-12-21T09:13:16.923Z,82.95
2017-12-21T09:14:16.917Z,82.95
2017-12-21T09:15:16.912Z,82.90
2017-12-21T09:16:16.905Z,82.71
2017-12-21T09:17:16.900Z,82.10
2017-12-21T09:18:16.894Z,82.24
2017-12-21T09:19:16.889Z,82.52
2017-12-21T09:20:16.884Z,81.86
2017-12-21T09:21:16.879Z,81.76
2017-12-21T09:22:16.871Z,82.05
2017-12-21T09:23:16.866Z,81.95
2017-12-21T09:24:16.861Z,82.24
2017-12-21T09:25:16.855Z,82.14
2017-12-21T09:26:16.851Z,81.67
2017-12-21T09:27:16.846Z,82.33
2017-12-21T09:28:16.840Z,82.24
2017-12-21T09:29:16.835Z,82.05
2017-12-21T09:30:16.829Z,81.67
2017-12-21T09:31:16.824Z,81.20
2017-12-21T09:32:16.819Z,80.63
2017-12-21T09:33:16.813Z,80.44
2017-12-21T09:34:16.815Z,80.06
2017-12-21T09:35:16.803Z,79.58
2017-12-21T09:36:16.797Z,79.77
2017-12-21T09:37:16.793Z,79.77
2017-12-21T09:38:16.788Z,79.68
2017-12-21T09:39:16.783Z,79.58
2017-12-21T09:40:16.777Z,79.49
2017-12-21T09:41:16.774Z,79.49
2017-12-21T09:42:16.767Z,79.30
2017-12-21T09:43:16.763Z,79.58
2017-12-21T09:44:16.757Z,79.39
2017-12-21T09:45:16.753Z,80.72
2017-12-21T09:46:16.747Z,79.68
2017-12-21T09:47:16.743Z,79.39
2017-12-21T09:48:16.737Z,79.21
2017-12-21T09:49:16.733Z,79.11
2017-12-21T09:50:16.727Z,79.02
2017-12-21T09:51:16.723Z,79.21
2017-12-21T09:52:16.719Z,79.15
2017-12-21T09:53:16.713Z,79.06
2017-12-21T09:54:16.708Z,78.20
2017-12-21T09:55:16.704Z,78.02
2017-12-21T09:56:16.699Z,77.83
2017-12-21T09:57:16.696Z,77.16
2017-12-21T09:58:16.690Z,77.25
2017-12-21T09:59:16.686Z,77.35
2017-12-21T10:00:16.681Z,78.02
2017-12-21T10:01:16.677Z,77.64
2017-12-21T10:02:16.672Z,78.20
2017-12-21T10:03:16.667Z,78.49
2017-12-21T10:04:16.663Z,78.58
2017-12-21T10:05:16.660Z,78.20
2017-12-21T10:06:16.655Z,78.58
2017-12-21T10:07:16.651Z,78.67
2017-12-21T10:08:16.645Z,78.58
2017-12-21T10:09:16.641Z,79.15
2017-12-21T10:10:16.635Z,78.67
2017-12-21T10:11:16.632Z,78.77
2017-12-21T10:12:16.628Z,79.15
2017-12-21T10:13:16.623Z,78.49
2017-12-21T10:14:16.617Z,77.92
2017-12-21T10:15:16.612Z,78.02
2017-12-21T10:16:16.607Z,78.30
2017-12-21T10:17:16.605Z,78.67
2017-12-21T10:18:16.597Z,78.39
2017-12-21T10:19:16.593Z,78.49
2017-12-21T10:20:16.590Z,79.15
2017-12-21T10:21:16.585Z,78.58
2017-12-21T10:22:16.580Z,78.67
2017-12-21T10:23:16.574Z,79.53
2017-12-21T10:24:16.571Z,78.67
2017-12-21T10:25:16.565Z,78.58
2017-12-21T10:26:16.565Z,78.67
2017-12-21T10:27:16.555Z,78.58
2017-12-21T10:28:16.551Z,78.20
2017-12-21T10:29:16.547Z,78.49
2017-12-21T10:30:16.542Z,78.39
2017-12-21T10:31:16.539Z,77.92
2017-12-21T10:32:16.533Z,77.83
2017-12-21T10:33:16.528Z,78.11
2017-12-21T10:34:16.522Z,77.92
2017-12-21T10:35:16.517Z,77.25
2017-12-21T10:36:16.513Z,77.45
2017-12-21T10:37:16.510Z,77.25
2017-12-21T10:38:16.504Z,77.92
2017-12-21T10:39:16.499Z,78.02
2017-12-21T10:40:16.495Z,78.20
2017-12-21T10:41:16.490Z,78.30
2017-12-21T10:42:16.484Z,78.20
2017-12-21T10:43:16.482Z,78.87
2017-12-21T10:44:16.477Z,79.06
2017-12-21T10:45:16.471Z,78.96
2017-12-21T10:46:16.465Z,78.87
2017-12-21T10:47:16.461Z,79.53
2017-12-21T10:48:16.456Z,78.96
2017-12-21T10:49:16.455Z,79.63
2017-12-21T10:50:16.446Z,79.06
2017-12-21T10:51:16.443Z,79.15
2017-12-21T10:52:16.494Z,79.06
2017-12-21T10:53:16.433Z,79.06
2017-12-21T10:54:16.428Z,78.49
2017-12-21T10:55:16.426Z,78.30
2017-12-21T10:56:16.418Z,78.67
2017-12-21T10:57:16.414Z,77.83
2017-12-21T10:58:16.408Z,77.73
2017-12-21T10:59:16.404Z,77.06
2017-12-21T11:00:16.399Z,76.54
2017-12-21T11:01:16.395Z,76.15
2017-12-21T11:02:16.389Z,76.63
2017-12-21T11:03:16.386Z,76.06
2017-12-21T11:04:16.382Z,76.34
2017-12-21T11:05:16.383Z,76.92
2017-12-21T11:06:16.371Z,76.92
2017-12-21T11:07:16.367Z,76.73
2017-12-21T11:08:16.362Z,77.58
2017-12-21T11:09:16.358Z,77.96
2017-12-21T11:10:16.353Z,76.73
2017-12-21T11:11:16.350Z,76.92
2017-12-21T11:12:16.347Z,76.63
2017-12-21T11:13:16.342Z,76.63
2017-12-21T11:14:16.336Z,77.29
2017-12-21T11:15:16.332Z,77.11
2017-12-21T11:16:16.328Z,77.48
2017-12-21T11:17:16.323Z,77.11
2017-12-21T11:18:16.319Z,77.67
2017-12-21T11:19:16.314Z,77.39
2017-12-21T11:20:16.311Z,77.39
2017-12-21T11:21:16.307Z,77.20
2017-12-21T11:22:16.302Z,77.77
2017-12-21T11:23:16.298Z,77.58
2017-12-21T11:24:16.294Z,77.39
2017-12-21T11:25:16.289Z,77.29
2017-12-21T11:26:16.290Z,77.29
2017-12-21T11:27:16.280Z,78.43
2017-12-21T11:28:16.278Z,77.39
2017-12-21T11:29:16.274Z,77.11
2017-12-21T11:30:16.268Z,76.82
2017-12-21T11:31:16.265Z,77.11
2017-12-21T11:32:16.281Z,77.58
2017-12-21T11:33:16.259Z,77.58
2017-12-21T11:34:16.254Z,77.77
2017-12-21T11:35:16.250Z,77.01
2017-12-21T11:36:16.245Z,76.34
2017-12-21T11:37:16.244Z,75.24
2017-12-21T11:38:16.292Z,74.39
2017-12-21T11:39:16.235Z,74.01
2017-12-21T11:40:16.232Z,73.82
2017-12-21T11:41:16.227Z,74.77
2017-12-21T11:42:16.223Z,74.96
2017-12-21T11:43:16.219Z,74.39
2017-12-21T11:44:16.218Z,74.20
2017-12-21T11:45:16.213Z,73.92
2017-12-21T11:46:16.209Z,73.07
2017-12-21T11:47:16.206Z,72.97
2017-12-21T11:48:16.204Z,73.07
2017-12-21T11:49:16.200Z,72.97
2017-12-21T11:50:16.201Z,72.02
2017-12-21T11:51:16.193Z,72.68
2017-12-21T11:52:16.189Z,72.97
2017-12-21T11:53:16.186Z,73.72
2017-12-21T11:54:16.183Z,73.72
2017-12-21T11:55:16.179Z,73.44
2017-12-21T11:56:16.178Z,73.63
2017-12-21T11:57:16.173Z,73.72
2017-12-21T11:58:16.170Z,73.63
2017-12-21T11:59:16.166Z,73.54
2017-12-21T12:00:16.163Z,73.35
2017-12-21T12:01:16.160Z,73.92
2017-12-21T12:02:16.154Z,74.11
2017-12-21T12:03:16.153Z,74.77
2017-12-21T12:04:16.150Z,75.34
2017-12-21T12:05:16.145Z,75.78
2017-12-21T12:06:16.140Z,75.68
2017-12-21T12:07:16.138Z,75.31
2017-12-21T12:08:16.134Z,75.11
2017-12-21T12:09:16.131Z,75.02
2017-12-21T12:10:16.126Z,75.49
2017-12-21T12:11:16.123Z,75.96
2017-12-21T12:12:16.120Z,75.96
2017-12-21T12:13:16.116Z,76.10
2017-12-21T12:14:16.112Z,75.53
2017-12-21T12:15:16.107Z,75.40
2017-12-21T12:16:16.105Z,75.96
2017-12-21T12:17:16.102Z,75.59
2017-12-21T12:18:16.096Z,75.68
2017-12-21T12:19:16.093Z,76.82
2017-12-21T12:20:16.091Z,77.11
2017-12-21T12:21:16.090Z,77.11
2017-12-21T12:22:16.082Z,76.54
2017-12-21T12:23:16.078Z,76.06
2017-12-21T12:24:16.074Z,75.53
2017-12-21T12:25:16.070Z,75.43
2017-12-21T12:26:16.066Z,75.62
2017-12-21T12:27:16.062Z,75.53
2017-12-21T12:28:16.059Z,76.01
2017-12-21T12:29:16.059Z,75.43
2017-12-21T12:30:16.050Z,75.02
2017-12-21T12:31:16.046Z,76.01
2017-12-21T12:32:16.043Z,75.11
2017-12-21T12:33:16.039Z,74.83
2017-12-21T12:34:16.033Z,75.72
2017-12-21T12:35:16.029Z,75.59
2017-12-21T12:36:16.026Z,75.49
2017-12-21T12:37:16.022Z,75.49
2017-12-21T12:38:16.017Z,76.06
2017-12-21T12:39:16.069Z,76.15
2017-12-21T12:40:16.010Z,76.06
2017-12-21T12:41:16.006Z,75.59
2017-12-21T12:42:16.002Z,75.68
2017-12-21T12:43:15.997Z,75.87
2017-12-21T12:44:15.993Z,76.54
2017-12-21T12:45:15.990Z,77.01
2017-12-21T12:46:15.986Z,75.87
2017-12-21T12:47:15.982Z,75.87
2017-12-21T12:48:15.977Z,76.06
2017-12-21T12:49:15.973Z,76.29
2017-12-21T12:50:15.968Z,75.34
2017-12-21T12:51:15.964Z,75.43
2017-12-21T12:52:15.960Z,74.96